sensor_id;sensor_type;location;lat;lon;timestamp;P1;durP1;ratioP1;P2;durP2;ratioP2
2866;SDS011;1441;48.886;8.728;2022-10-16T00:00:29;0.70;;;0.70;;
2866;SDS011;1441;48.886;8.728;2022-10-16T00:02:55;2.20;;;0.50;;
2866;SDS011;1441;48.886;8.728;2022-10-16T00:05:20;0.83;;;0.67;;
2866;SDS011;1441;48.886;8.728;2022-10-16T00:07:46;0.67;;;0.67;;
2866;SDS011;1441;48.886;8.728;2022-10-16T00:10:12;0.70;;;0.60;;
2866;SDS011;1441;48.886;8.728;2022-10-16T00:12:37;1.80;;;0.80;;
2866;SDS011;1441;48.886;8.728;2022-10-16T00:15:03;0.80;;;0.70;;
2866;SDS011;1441;48.886;8.728;2022-10-16T00:17:29;2.40;;;0.80;;
2866;SDS011;1441;48.886;8.728;2022-10-16T00:19:55;0.63;;;0.63;;
2866;SDS011;1441;48.886;8.728;2022-10-16T00:22:20;3.53;;;1.10;;
2866;SDS011;1441;48.886;8.728;2022-10-16T00:24:46;1.00;;;0.60;;
2866;SDS011;1441;48.886;8.728;2022-10-16T00:27:11;0.83;;;0.60;;
2866;SDS011;1441;48.886;8.728;2022-10-16T00:29:37;0.70;;;0.60;;
2866;SDS011;1441;48.886;8.728;2022-10-16T00:32:02;0.77;;;0.57;;
2866;SDS011;1441;48.886;8.728;2022-10-16T00:34:28;6.03;;;0.60;;
2866;SDS011;1441;48.886;8.728;2022-10-16T00:36:54;2.93;;;0.60;;
2866;SDS011;1441;48.886;8.728;2022-10-16T00:39:19;2.07;;;0.97;;
2866;SDS011;1441;48.886;8.728;2022-10-16T00:41:45;1.50;;;0.67;;
2866;SDS011;1441;48.886;8.728;2022-10-16T00:50:24;1.17;;;0.50;;
2866;SDS011;1441;48.886;8.728;2022-10-16T00:52:56;1.33;;;0.60;;
2866;SDS011;1441;48.886;8.728;2022-10-16T00:55:23;3.47;;;0.67;;
2866;SDS011;1441;48.886;8.728;2022-10-16T00:57:50;5.60;;;0.60;;
2866;SDS011;1441;48.886;8.728;2022-10-16T01:00:18;0.97;;;0.70;;
2866;SDS011;1441;48.886;8.728;2022-10-16T01:02:56;0.77;;;0.57;;
2866;SDS011;1441;48.886;8.728;2022-10-16T01:05:37;3.53;;;0.70;;
2866;SDS011;1441;48.886;8.728;2022-10-16T01:08:18;4.63;;;0.60;;
2866;SDS011;1441;48.886;8.728;2022-10-16T01:10:54;6.63;;;0.73;;
2866;SDS011;1441;48.886;8.728;2022-10-16T01:13:25;1.27;;;0.70;;
2866;SDS011;1441;48.886;8.728;2022-10-16T01:21:10;4.23;;;0.70;;
2866;SDS011;1441;48.886;8.728;2022-10-16T01:23:51;5.33;;;0.70;;
2866;SDS011;1441;48.886;8.728;2022-10-16T01:29:11;3.27;;;0.70;;
2866;SDS011;1441;48.886;8.728;2022-10-16T01:31:47;1.00;;;0.70;;
2866;SDS011;1441;48.886;8.728;2022-10-16T01:34:20;1.67;;;0.70;;
2866;SDS011;1441;48.886;8.728;2022-10-16T01:36:56;2.00;;;0.77;;
2866;SDS011;1441;48.886;8.728;2022-10-16T01:39:28;4.20;;;0.80;;
2866;SDS011;1441;48.886;8.728;2022-10-16T01:41:58;1.37;;;0.80;;
2866;SDS011;1441;48.886;8.728;2022-10-16T01:44:31;2.40;;;0.70;;
2866;SDS011;1441;48.886;8.728;2022-10-16T01:46:58;2.40;;;0.77;;
2866;SDS011;1441;48.886;8.728;2022-10-16T01:49:26;3.73;;;0.70;;
2866;SDS011;1441;48.886;8.728;2022-10-16T01:51:56;1.10;;;0.60;;
2866;SDS011;1441;48.886;8.728;2022-10-16T01:54:28;1.33;;;0.60;;
2866;SDS011;1441;48.886;8.728;2022-10-16T01:56:57;1.43;;;0.97;;
2866;SDS011;1441;48.886;8.728;2022-10-16T01:59:25;3.40;;;0.80;;
2866;SDS011;1441;48.886;8.728;2022-10-16T02:01:54;0.97;;;0.60;;
2866;SDS011;1441;48.886;8.728;2022-10-16T02:04:34;6.27;;;0.80;;
2866;SDS011;1441;48.886;8.728;2022-10-16T02:07:04;1.50;;;0.93;;
2866;SDS011;1441;48.886;8.728;2022-10-16T02:09:32;2.50;;;0.70;;
2866;SDS011;1441;48.886;8.728;2022-10-16T02:11:59;1.37;;;0.70;;
2866;SDS011;1441;48.886;8.728;2022-10-16T02:14:31;1.40;;;0.73;;
2866;SDS011;1441;48.886;8.728;2022-10-16T02:16:57;0.80;;;0.70;;
2866;SDS011;1441;48.886;8.728;2022-10-16T02:19:23;6.90;;;0.93;;
2866;SDS011;1441;48.886;8.728;2022-10-16T02:21:51;4.67;;;0.90;;
2866;SDS011;1441;48.886;8.728;2022-10-16T02:24:25;2.50;;;0.77;;
2866;SDS011;1441;48.886;8.728;2022-10-16T02:27:17;0.80;;;0.80;;
2866;SDS011;1441;48.886;8.728;2022-10-16T02:29:47;5.60;;;0.90;;
2866;SDS011;1441;48.886;8.728;2022-10-16T02:32:24;0.90;;;0.80;;
2866;SDS011;1441;48.886;8.728;2022-10-16T02:34:54;7.47;;;1.00;;
2866;SDS011;1441;48.886;8.728;2022-10-16T02:37:20;0.97;;;0.70;;
2866;SDS011;1441;48.886;8.728;2022-10-16T02:39:46;2.80;;;0.70;;
2866;SDS011;1441;48.886;8.728;2022-10-16T02:42:12;1.67;;;0.83;;
2866;SDS011;1441;48.886;8.728;2022-10-16T02:44:38;1.03;;;0.70;;
2866;SDS011;1441;48.886;8.728;2022-10-16T02:47:04;2.00;;;0.70;;
2866;SDS011;1441;48.886;8.728;2022-10-16T02:49:30;1.03;;;0.90;;
2866;SDS011;1441;48.886;8.728;2022-10-16T02:51:56;1.23;;;0.77;;
2866;SDS011;1441;48.886;8.728;2022-10-16T02:54:21;3.70;;;0.73;;
2866;SDS011;1441;48.886;8.728;2022-10-16T02:56:47;1.83;;;0.80;;
2866;SDS011;1441;48.886;8.728;2022-10-16T02:59:12;0.83;;;0.83;;
2866;SDS011;1441;48.886;8.728;2022-10-16T03:01:38;2.03;;;0.70;;
2866;SDS011;1441;48.886;8.728;2022-10-16T03:04:03;2.20;;;0.90;;
2866;SDS011;1441;48.886;8.728;2022-10-16T03:06:29;1.23;;;0.60;;
2866;SDS011;1441;48.886;8.728;2022-10-16T03:08:54;0.83;;;0.83;;
2866;SDS011;1441;48.886;8.728;2022-10-16T03:11:20;1.30;;;0.83;;
2866;SDS011;1441;48.886;8.728;2022-10-16T03:13:45;1.60;;;0.67;;
2866;SDS011;1441;48.886;8.728;2022-10-16T03:16:11;0.63;;;0.60;;
2866;SDS011;1441;48.886;8.728;2022-10-16T03:18:36;2.30;;;0.60;;
2866;SDS011;1441;48.886;8.728;2022-10-16T03:21:02;2.50;;;0.70;;
2866;SDS011;1441;48.886;8.728;2022-10-16T03:23:28;2.40;;;0.80;;
2866;SDS011;1441;48.886;8.728;2022-10-16T03:25:53;0.50;;;0.50;;
2866;SDS011;1441;48.886;8.728;2022-10-16T03:28:19;0.80;;;0.80;;
2866;SDS011;1441;48.886;8.728;2022-10-16T03:30:45;2.20;;;0.70;;
2866;SDS011;1441;48.886;8.728;2022-10-16T03:33:10;1.33;;;0.80;;
2866;SDS011;1441;48.886;8.728;2022-10-16T03:35:36;1.33;;;0.90;;
2866;SDS011;1441;48.886;8.728;2022-10-16T03:38:01;2.07;;;0.90;;
2866;SDS011;1441;48.886;8.728;2022-10-16T03:40:27;1.13;;;0.50;;
2866;SDS011;1441;48.886;8.728;2022-10-16T03:42:52;0.97;;;0.70;;
2866;SDS011;1441;48.886;8.728;2022-10-16T03:45:22;2.80;;;0.70;;
2866;SDS011;1441;48.886;8.728;2022-10-16T03:47:47;0.77;;;0.70;;
2866;SDS011;1441;48.886;8.728;2022-10-16T03:50:13;0.77;;;0.77;;
2866;SDS011;1441;48.886;8.728;2022-10-16T03:52:39;1.70;;;0.80;;
2866;SDS011;1441;48.886;8.728;2022-10-16T03:55:04;3.43;;;1.03;;
2866;SDS011;1441;48.886;8.728;2022-10-16T03:57:30;0.53;;;0.53;;
2866;SDS011;1441;48.886;8.728;2022-10-16T03:59:56;1.77;;;0.70;;
2866;SDS011;1441;48.886;8.728;2022-10-16T04:02:21;2.57;;;0.70;;
2866;SDS011;1441;48.886;8.728;2022-10-16T04:04:47;2.33;;;0.80;;
2866;SDS011;1441;48.886;8.728;2022-10-16T04:07:12;3.07;;;0.80;;
2866;SDS011;1441;48.886;8.728;2022-10-16T04:09:38;1.80;;;0.63;;
2866;SDS011;1441;48.886;8.728;2022-10-16T04:12:04;2.93;;;0.70;;
2866;SDS011;1441;48.886;8.728;2022-10-16T04:14:29;0.60;;;0.60;;
2866;SDS011;1441;48.886;8.728;2022-10-16T04:16:55;3.20;;;0.60;;
2866;SDS011;1441;48.886;8.728;2022-10-16T04:19:20;1.13;;;0.77;;
2866;SDS011;1441;48.886;8.728;2022-10-16T04:21:46;1.00;;;0.90;;
2866;SDS011;1441;48.886;8.728;2022-10-16T04:24:11;3.27;;;0.87;;
2866;SDS011;1441;48.886;8.728;2022-10-16T04:26:37;3.23;;;0.70;;
2866;SDS011;1441;48.886;8.728;2022-10-16T04:29:03;1.60;;;1.03;;
2866;SDS011;1441;48.886;8.728;2022-10-16T04:31:29;0.73;;;0.73;;
2866;SDS011;1441;48.886;8.728;2022-10-16T04:33:54;7.13;;;0.60;;
2866;SDS011;1441;48.886;8.728;2022-10-16T04:36:20;2.87;;;1.07;;
2866;SDS011;1441;48.886;8.728;2022-10-16T04:38:45;1.70;;;0.77;;
2866;SDS011;1441;48.886;8.728;2022-10-16T04:41:11;0.50;;;0.50;;
2866;SDS011;1441;48.886;8.728;2022-10-16T04:43:37;2.10;;;0.80;;
2866;SDS011;1441;48.886;8.728;2022-10-16T04:46:02;1.83;;;0.70;;
2866;SDS011;1441;48.886;8.728;2022-10-16T04:48:29;0.60;;;0.60;;
2866;SDS011;1441;48.886;8.728;2022-10-16T04:50:55;0.83;;;0.63;;
2866;SDS011;1441;48.886;8.728;2022-10-16T04:53:21;6.37;;;0.83;;
2866;SDS011;1441;48.886;8.728;2022-10-16T04:55:46;4.20;;;0.90;;
2866;SDS011;1441;48.886;8.728;2022-10-16T04:58:12;3.87;;;1.07;;
2866;SDS011;1441;48.886;8.728;2022-10-16T05:00:38;3.17;;;1.10;;
2866;SDS011;1441;48.886;8.728;2022-10-16T05:03:04;4.37;;;0.67;;
2866;SDS011;1441;48.886;8.728;2022-10-16T05:05:32;2.00;;;0.70;;
2866;SDS011;1441;48.886;8.728;2022-10-16T05:07:58;0.90;;;0.73;;
2866;SDS011;1441;48.886;8.728;2022-10-16T05:10:23;4.57;;;0.70;;
2866;SDS011;1441;48.886;8.728;2022-10-16T05:12:49;0.53;;;0.53;;
2866;SDS011;1441;48.886;8.728;2022-10-16T05:15:16;0.67;;;0.67;;
2866;SDS011;1441;48.886;8.728;2022-10-16T05:17:42;0.60;;;0.60;;
2866;SDS011;1441;48.886;8.728;2022-10-16T05:20:07;0.63;;;0.50;;
2866;SDS011;1441;48.886;8.728;2022-10-16T05:22:33;1.43;;;0.80;;
2866;SDS011;1441;48.886;8.728;2022-10-16T05:24:58;1.93;;;0.70;;
2866;SDS011;1441;48.886;8.728;2022-10-16T05:27:24;1.37;;;0.80;;
2866;SDS011;1441;48.886;8.728;2022-10-16T05:29:50;0.83;;;0.83;;
2866;SDS011;1441;48.886;8.728;2022-10-16T05:32:15;1.80;;;0.80;;
2866;SDS011;1441;48.886;8.728;2022-10-16T05:34:42;1.53;;;1.10;;
2866;SDS011;1441;48.886;8.728;2022-10-16T05:37:08;1.90;;;1.00;;
2866;SDS011;1441;48.886;8.728;2022-10-16T05:39:34;0.80;;;0.80;;
2866;SDS011;1441;48.886;8.728;2022-10-16T05:41:59;2.30;;;1.00;;
2866;SDS011;1441;48.886;8.728;2022-10-16T05:44:25;2.83;;;1.13;;
2866;SDS011;1441;48.886;8.728;2022-10-16T05:46:51;4.13;;;1.03;;
2866;SDS011;1441;48.886;8.728;2022-10-16T05:49:16;3.00;;;1.00;;
2866;SDS011;1441;48.886;8.728;2022-10-16T05:51:42;1.87;;;1.33;;
2866;SDS011;1441;48.886;8.728;2022-10-16T05:54:08;1.47;;;1.00;;
2866;SDS011;1441;48.886;8.728;2022-10-16T05:56:34;3.60;;;0.83;;
2866;SDS011;1441;48.886;8.728;2022-10-16T05:59:00;2.00;;;1.00;;
2866;SDS011;1441;48.886;8.728;2022-10-16T06:01:25;1.97;;;1.07;;
2866;SDS011;1441;48.886;8.728;2022-10-16T06:03:51;5.47;;;1.07;;
2866;SDS011;1441;48.886;8.728;2022-10-16T06:06:21;8.73;;;1.40;;
2866;SDS011;1441;48.886;8.728;2022-10-16T06:08:49;8.97;;;1.40;;
2866;SDS011;1441;48.886;8.728;2022-10-16T06:11:15;4.30;;;1.27;;
2866;SDS011;1441;48.886;8.728;2022-10-16T06:13:42;1.33;;;1.20;;
2866;SDS011;1441;48.886;8.728;2022-10-16T06:16:10;5.50;;;1.17;;
2866;SDS011;1441;48.886;8.728;2022-10-16T06:18:37;1.00;;;0.90;;
2866;SDS011;1441;48.886;8.728;2022-10-16T06:21:10;2.93;;;1.00;;
2866;SDS011;1441;48.886;8.728;2022-10-16T06:23:38;4.87;;;0.93;;
2866;SDS011;1441;48.886;8.728;2022-10-16T06:26:05;1.43;;;1.10;;
2866;SDS011;1441;48.886;8.728;2022-10-16T06:28:34;1.80;;;1.70;;
2866;SDS011;1441;48.886;8.728;2022-10-16T06:31:00;1.27;;;1.07;;
2866;SDS011;1441;48.886;8.728;2022-10-16T06:33:27;4.33;;;0.97;;
2866;SDS011;1441;48.886;8.728;2022-10-16T06:35:53;1.03;;;1.03;;
2866;SDS011;1441;48.886;8.728;2022-10-16T06:38:18;2.93;;;1.20;;
2866;SDS011;1441;48.886;8.728;2022-10-16T06:40:44;3.30;;;1.23;;
2866;SDS011;1441;48.886;8.728;2022-10-16T06:43:10;2.83;;;1.33;;
2866;SDS011;1441;48.886;8.728;2022-10-16T06:45:35;1.67;;;1.10;;
2866;SDS011;1441;48.886;8.728;2022-10-16T06:48:01;1.93;;;1.20;;
2866;SDS011;1441;48.886;8.728;2022-10-16T06:50:27;2.70;;;1.70;;
2866;SDS011;1441;48.886;8.728;2022-10-16T06:52:52;8.87;;;1.40;;
2866;SDS011;1441;48.886;8.728;2022-10-16T06:55:18;4.73;;;1.70;;
2866;SDS011;1441;48.886;8.728;2022-10-16T06:57:43;2.80;;;1.20;;
2866;SDS011;1441;48.886;8.728;2022-10-16T07:00:12;3.60;;;1.23;;
2866;SDS011;1441;48.886;8.728;2022-10-16T07:02:37;0.90;;;0.90;;
2866;SDS011;1441;48.886;8.728;2022-10-16T07:05:03;1.40;;;1.30;;
2866;SDS011;1441;48.886;8.728;2022-10-16T07:07:29;1.77;;;1.03;;
2866;SDS011;1441;48.886;8.728;2022-10-16T07:09:54;8.33;;;1.20;;
2866;SDS011;1441;48.886;8.728;2022-10-16T07:12:20;1.17;;;1.17;;
2866;SDS011;1441;48.886;8.728;2022-10-16T07:14:45;1.30;;;1.20;;
2866;SDS011;1441;48.886;8.728;2022-10-16T07:17:11;6.87;;;4.87;;
2866;SDS011;1441;48.886;8.728;2022-10-16T07:19:36;2.30;;;2.10;;
2866;SDS011;1441;48.886;8.728;2022-10-16T07:22:02;1.00;;;0.80;;
2866;SDS011;1441;48.886;8.728;2022-10-16T07:24:28;0.90;;;0.90;;
2866;SDS011;1441;48.886;8.728;2022-10-16T07:26:53;1.07;;;0.90;;
2866;SDS011;1441;48.886;8.728;2022-10-16T07:29:20;1.40;;;1.10;;
2866;SDS011;1441;48.886;8.728;2022-10-16T07:31:46;2.30;;;0.90;;
2866;SDS011;1441;48.886;8.728;2022-10-16T07:34:14;0.80;;;0.80;;
2866;SDS011;1441;48.886;8.728;2022-10-16T07:36:40;3.07;;;0.70;;
2866;SDS011;1441;48.886;8.728;2022-10-16T07:39:06;0.50;;;0.50;;
2866;SDS011;1441;48.886;8.728;2022-10-16T07:41:31;0.67;;;0.60;;
2866;SDS011;1441;48.886;8.728;2022-10-16T07:44:01;1.37;;;0.90;;
2866;SDS011;1441;48.886;8.728;2022-10-16T07:46:27;0.80;;;0.80;;
2866;SDS011;1441;48.886;8.728;2022-10-16T07:48:54;1.83;;;0.80;;
2866;SDS011;1441;48.886;8.728;2022-10-16T07:51:21;0.63;;;0.63;;
2866;SDS011;1441;48.886;8.728;2022-10-16T07:53:48;1.00;;;0.90;;
2866;SDS011;1441;48.886;8.728;2022-10-16T07:56:14;2.40;;;0.80;;
2866;SDS011;1441;48.886;8.728;2022-10-16T07:58:40;6.83;;;1.30;;
2866;SDS011;1441;48.886;8.728;2022-10-16T08:01:06;8.43;;;0.87;;
2866;SDS011;1441;48.886;8.728;2022-10-16T08:03:34;2.63;;;0.80;;
2866;SDS011;1441;48.886;8.728;2022-10-16T08:06:02;4.93;;;1.10;;
2866;SDS011;1441;48.886;8.728;2022-10-16T08:08:29;2.33;;;0.80;;
2866;SDS011;1441;48.886;8.728;2022-10-16T08:10:55;0.80;;;0.80;;
2866;SDS011;1441;48.886;8.728;2022-10-16T08:13:21;0.90;;;0.90;;
2866;SDS011;1441;48.886;8.728;2022-10-16T08:15:46;1.27;;;0.77;;
2866;SDS011;1441;48.886;8.728;2022-10-16T08:18:13;1.90;;;0.83;;
2866;SDS011;1441;48.886;8.728;2022-10-16T08:20:40;2.60;;;0.80;;
2866;SDS011;1441;48.886;8.728;2022-10-16T08:23:06;3.60;;;0.97;;
2866;SDS011;1441;48.886;8.728;2022-10-16T08:25:34;1.73;;;1.03;;
2866;SDS011;1441;48.886;8.728;2022-10-16T08:28:02;6.23;;;0.80;;
2866;SDS011;1441;48.886;8.728;2022-10-16T08:30:29;1.63;;;0.80;;
2866;SDS011;1441;48.886;8.728;2022-10-16T08:32:55;0.80;;;0.80;;
2866;SDS011;1441;48.886;8.728;2022-10-16T08:35:20;0.80;;;0.80;;
2866;SDS011;1441;48.886;8.728;2022-10-16T08:37:46;3.40;;;0.90;;
2866;SDS011;1441;48.886;8.728;2022-10-16T08:40:16;3.80;;;0.90;;
2866;SDS011;1441;48.886;8.728;2022-10-16T08:51:04;1.40;;;0.87;;
2866;SDS011;1441;48.886;8.728;2022-10-16T08:53:36;2.97;;;1.50;;
2866;SDS011;1441;48.886;8.728;2022-10-16T08:56:15;1.23;;;0.90;;
2866;SDS011;1441;48.886;8.728;2022-10-16T08:58:43;0.70;;;0.70;;
2866;SDS011;1441;48.886;8.728;2022-10-16T09:01:12;1.27;;;0.93;;
2866;SDS011;1441;48.886;8.728;2022-10-16T09:03:42;1.47;;;0.70;;
2866;SDS011;1441;48.886;8.728;2022-10-16T09:09:18;1.00;;;0.80;;
2866;SDS011;1441;48.886;8.728;2022-10-16T09:12:04;1.43;;;0.70;;
2866;SDS011;1441;48.886;8.728;2022-10-16T09:19:49;13.73;;;1.20;;
2866;SDS011;1441;48.886;8.728;2022-10-16T09:22:21;2.57;;;1.13;;
2866;SDS011;1441;48.886;8.728;2022-10-16T09:24:54;1.00;;;0.90;;
2866;SDS011;1441;48.886;8.728;2022-10-16T09:27:24;2.30;;;0.90;;
2866;SDS011;1441;48.886;8.728;2022-10-16T09:29:51;0.70;;;0.70;;
2866;SDS011;1441;48.886;8.728;2022-10-16T09:32:20;2.40;;;1.17;;
2866;SDS011;1441;48.886;8.728;2022-10-16T09:34:48;4.93;;;0.83;;
2866;SDS011;1441;48.886;8.728;2022-10-16T09:37:18;1.40;;;0.80;;
2866;SDS011;1441;48.886;8.728;2022-10-16T09:39:50;3.40;;;0.80;;
2866;SDS011;1441;48.886;8.728;2022-10-16T09:42:17;1.53;;;0.93;;
2866;SDS011;1441;48.886;8.728;2022-10-16T09:44:49;1.37;;;0.70;;
2866;SDS011;1441;48.886;8.728;2022-10-16T09:47:17;1.73;;;1.33;;
2866;SDS011;1441;48.886;8.728;2022-10-16T09:52:27;0.60;;;0.60;;
2866;SDS011;1441;48.886;8.728;2022-10-16T09:58:11;1.93;;;0.90;;
2866;SDS011;1441;48.886;8.728;2022-10-16T10:00:24;1.53;;;0.70;;
2866;SDS011;1441;48.886;8.728;2022-10-16T10:02:53;1.23;;;1.00;;
2866;SDS011;1441;48.886;8.728;2022-10-16T10:05:24;1.70;;;1.00;;
2866;SDS011;1441;48.886;8.728;2022-10-16T10:07:58;1.43;;;0.70;;
2866;SDS011;1441;48.886;8.728;2022-10-16T10:10:28;6.27;;;1.00;;
2866;SDS011;1441;48.886;8.728;2022-10-16T10:12:55;0.80;;;0.80;;
2866;SDS011;1441;48.886;8.728;2022-10-16T10:15:21;0.70;;;0.70;;
2866;SDS011;1441;48.886;8.728;2022-10-16T10:17:50;3.50;;;1.00;;
2866;SDS011;1441;48.886;8.728;2022-10-16T10:20:35;0.87;;;0.87;;
2866;SDS011;1441;48.886;8.728;2022-10-16T10:23:22;3.07;;;1.10;;
2866;SDS011;1441;48.886;8.728;2022-10-16T10:25:57;4.70;;;1.30;;
2866;SDS011;1441;48.886;8.728;2022-10-16T10:34:04;0.80;;;0.70;;
2866;SDS011;1441;48.886;8.728;2022-10-16T10:36:46;3.60;;;1.60;;
2866;SDS011;1441;48.886;8.728;2022-10-16T10:39:32;2.47;;;0.97;;
2866;SDS011;1441;48.886;8.728;2022-10-16T10:42:18;1.70;;;0.90;;
2866;SDS011;1441;48.886;8.728;2022-10-16T10:59:04;1.53;;;0.90;;
2866;SDS011;1441;48.886;8.728;2022-10-16T11:07:25;0.80;;;0.80;;
2866;SDS011;1441;48.886;8.728;2022-10-16T11:09:58;1.40;;;0.90;;
2866;SDS011;1441;48.886;8.728;2022-10-16T11:12:40;2.10;;;1.00;;
2866;SDS011;1441;48.886;8.728;2022-10-16T11:15:19;0.90;;;0.90;;
2866;SDS011;1441;48.886;8.728;2022-10-16T11:20:25;0.90;;;0.80;;
2866;SDS011;1441;48.886;8.728;2022-10-16T11:23:09;2.30;;;0.93;;
2866;SDS011;1441;48.886;8.728;2022-10-16T11:25:48;2.50;;;1.20;;
2866;SDS011;1441;48.886;8.728;2022-10-16T11:28:23;2.40;;;1.07;;
2866;SDS011;1441;48.886;8.728;2022-10-16T11:31:00;3.33;;;1.03;;
2866;SDS011;1441;48.886;8.728;2022-10-16T11:38:43;5.30;;;1.13;;
2866;SDS011;1441;48.886;8.728;2022-10-16T11:49:44;1.70;;;1.00;;
2866;SDS011;1441;48.886;8.728;2022-10-16T11:54:52;2.40;;;1.03;;
2866;SDS011;1441;48.886;8.728;2022-10-16T11:57:42;1.83;;;1.13;;
2866;SDS011;1441;48.886;8.728;2022-10-16T12:00:31;0.87;;;0.87;;
2866;SDS011;1441;48.886;8.728;2022-10-16T12:03:17;1.20;;;0.90;;
2866;SDS011;1441;48.886;8.728;2022-10-16T12:09:02;4.00;;;1.07;;
2866;SDS011;1441;48.886;8.728;2022-10-16T12:16:38;2.73;;;1.00;;
2866;SDS011;1441;48.886;8.728;2022-10-16T12:19:16;1.07;;;0.97;;
2866;SDS011;1441;48.886;8.728;2022-10-16T12:21:42;3.70;;;1.13;;
2866;SDS011;1441;48.886;8.728;2022-10-16T12:24:32;2.63;;;1.00;;
2866;SDS011;1441;48.886;8.728;2022-10-16T12:27:01;1.37;;;0.83;;
2866;SDS011;1441;48.886;8.728;2022-10-16T12:29:40;0.80;;;0.80;;
2866;SDS011;1441;48.886;8.728;2022-10-16T12:34:52;4.40;;;0.90;;
2866;SDS011;1441;48.886;8.728;2022-10-16T12:37:21;2.60;;;0.83;;
2866;SDS011;1441;48.886;8.728;2022-10-16T12:39:59;1.97;;;1.43;;
2866;SDS011;1441;48.886;8.728;2022-10-16T12:42:36;1.77;;;1.00;;
2866;SDS011;1441;48.886;8.728;2022-10-16T12:45:12;2.30;;;0.80;;
2866;SDS011;1441;48.886;8.728;2022-10-16T12:47:49;1.20;;;0.80;;
2866;SDS011;1441;48.886;8.728;2022-10-16T12:53:19;0.80;;;0.80;;
2866;SDS011;1441;48.886;8.728;2022-10-16T12:55:52;3.53;;;1.40;;
2866;SDS011;1441;48.886;8.728;2022-10-16T12:58:49;1.33;;;1.23;;
2866;SDS011;1441;48.886;8.728;2022-10-16T13:04:04;2.60;;;1.17;;
2866;SDS011;1441;48.886;8.728;2022-10-16T13:06:51;2.70;;;1.27;;
2866;SDS011;1441;48.886;8.728;2022-10-16T13:25:28;3.47;;;1.20;;
2866;SDS011;1441;48.886;8.728;2022-10-16T13:28:12;1.87;;;1.60;;
2866;SDS011;1441;48.886;8.728;2022-10-16T13:30:51;3.53;;;1.43;;
2866;SDS011;1441;48.886;8.728;2022-10-16T13:35:56;2.03;;;1.20;;
2866;SDS011;1441;48.886;8.728;2022-10-16T13:38:23;3.10;;;1.03;;
2866;SDS011;1441;48.886;8.728;2022-10-16T13:40:53;1.80;;;1.40;;
2866;SDS011;1441;48.886;8.728;2022-10-16T13:43:39;1.57;;;1.10;;
2866;SDS011;1441;48.886;8.728;2022-10-16T13:46:15;1.20;;;1.20;;
2866;SDS011;1441;48.886;8.728;2022-10-16T13:48:42;1.93;;;1.50;;
2866;SDS011;1441;48.886;8.728;2022-10-16T13:51:14;3.50;;;1.53;;
2866;SDS011;1441;48.886;8.728;2022-10-16T13:53:41;6.60;;;1.27;;
2866;SDS011;1441;48.886;8.728;2022-10-16T13:56:15;4.87;;;1.27;;
2866;SDS011;1441;48.886;8.728;2022-10-16T13:58:42;1.10;;;1.00;;
2866;SDS011;1441;48.886;8.728;2022-10-16T14:01:16;3.90;;;1.20;;
2866;SDS011;1441;48.886;8.728;2022-10-16T14:03:45;0.87;;;0.87;;
2866;SDS011;1441;48.886;8.728;2022-10-16T14:06:30;1.20;;;1.10;;
2866;SDS011;1441;48.886;8.728;2022-10-16T14:11:32;2.50;;;1.43;;
2866;SDS011;1441;48.886;8.728;2022-10-16T14:14:01;4.60;;;3.90;;
2866;SDS011;1441;48.886;8.728;2022-10-16T14:16:29;6.77;;;3.57;;
2866;SDS011;1441;48.886;8.728;2022-10-16T14:19:03;11.77;;;5.20;;
2866;SDS011;1441;48.886;8.728;2022-10-16T14:21:35;4.97;;;4.40;;
2866;SDS011;1441;48.886;8.728;2022-10-16T14:24:10;9.90;;;6.53;;
2866;SDS011;1441;48.886;8.728;2022-10-16T14:26:49;2.23;;;2.13;;
2866;SDS011;1441;48.886;8.728;2022-10-16T14:29:17;4.37;;;1.90;;
2866;SDS011;1441;48.886;8.728;2022-10-16T14:32:05;2.07;;;1.87;;
2866;SDS011;1441;48.886;8.728;2022-10-16T14:34:52;2.97;;;2.30;;
2866;SDS011;1441;48.886;8.728;2022-10-16T14:39:49;4.00;;;1.40;;
2866;SDS011;1441;48.886;8.728;2022-10-16T14:42:19;4.87;;;2.10;;
2866;SDS011;1441;48.886;8.728;2022-10-16T14:44:49;5.43;;;1.20;;
2866;SDS011;1441;48.886;8.728;2022-10-16T14:47:20;5.03;;;1.60;;
2866;SDS011;1441;48.886;8.728;2022-10-16T14:49:50;6.63;;;1.90;;
2866;SDS011;1441;48.886;8.728;2022-10-16T14:52:17;8.23;;;1.47;;
2866;SDS011;1441;48.886;8.728;2022-10-16T14:54:42;7.50;;;1.60;;
2866;SDS011;1441;48.886;8.728;2022-10-16T14:57:18;3.20;;;1.33;;
2866;SDS011;1441;48.886;8.728;2022-10-16T14:59:47;5.03;;;1.30;;
2866;SDS011;1441;48.886;8.728;2022-10-16T15:04:53;1.67;;;1.30;;
2866;SDS011;1441;48.886;8.728;2022-10-16T15:07:19;1.33;;;1.23;;
2866;SDS011;1441;48.886;8.728;2022-10-16T15:09:44;1.67;;;1.17;;
2866;SDS011;1441;48.886;8.728;2022-10-16T15:12:10;2.63;;;1.23;;
2866;SDS011;1441;48.886;8.728;2022-10-16T15:14:35;1.83;;;1.50;;
2866;SDS011;1441;48.886;8.728;2022-10-16T15:17:02;1.43;;;1.33;;
2866;SDS011;1441;48.886;8.728;2022-10-16T15:19:28;6.77;;;1.50;;
2866;SDS011;1441;48.886;8.728;2022-10-16T15:21:54;5.30;;;1.40;;
2866;SDS011;1441;48.886;8.728;2022-10-16T15:24:19;1.37;;;1.27;;
2866;SDS011;1441;48.886;8.728;2022-10-16T15:26:45;1.83;;;1.73;;
2866;SDS011;1441;48.886;8.728;2022-10-16T15:29:11;2.33;;;1.20;;
2866;SDS011;1441;48.886;8.728;2022-10-16T15:31:37;1.77;;;1.00;;
2866;SDS011;1441;48.886;8.728;2022-10-16T15:34:03;1.13;;;1.13;;
2866;SDS011;1441;48.886;8.728;2022-10-16T15:36:34;4.57;;;0.97;;
2866;SDS011;1441;48.886;8.728;2022-10-16T15:39:20;2.87;;;1.23;;
2866;SDS011;1441;48.886;8.728;2022-10-16T15:41:46;2.10;;;1.10;;
2866;SDS011;1441;48.886;8.728;2022-10-16T15:44:18;3.53;;;0.90;;
2866;SDS011;1441;48.886;8.728;2022-10-16T15:46:45;3.50;;;1.30;;
2866;SDS011;1441;48.886;8.728;2022-10-16T15:49:11;3.10;;;1.57;;
2866;SDS011;1441;48.886;8.728;2022-10-16T15:51:40;1.70;;;1.30;;
2866;SDS011;1441;48.886;8.728;2022-10-16T15:54:06;4.97;;;1.80;;
2866;SDS011;1441;48.886;8.728;2022-10-16T15:56:32;3.23;;;1.83;;
2866;SDS011;1441;48.886;8.728;2022-10-16T15:58:58;3.53;;;1.40;;
2866;SDS011;1441;48.886;8.728;2022-10-16T16:01:25;4.97;;;1.80;;
2866;SDS011;1441;48.886;8.728;2022-10-16T16:03:55;6.53;;;1.60;;
2866;SDS011;1441;48.886;8.728;2022-10-16T16:06:21;1.90;;;1.30;;
2866;SDS011;1441;48.886;8.728;2022-10-16T16:08:48;2.00;;;1.63;;
2866;SDS011;1441;48.886;8.728;2022-10-16T16:11:15;3.33;;;1.30;;
2866;SDS011;1441;48.886;8.728;2022-10-16T16:13:42;1.67;;;1.57;;
2866;SDS011;1441;48.886;8.728;2022-10-16T16:16:08;4.40;;;1.87;;
2866;SDS011;1441;48.886;8.728;2022-10-16T16:18:35;2.07;;;1.60;;
2866;SDS011;1441;48.886;8.728;2022-10-16T16:21:01;3.17;;;1.60;;
2866;SDS011;1441;48.886;8.728;2022-10-16T16:23:27;7.07;;;1.63;;
2866;SDS011;1441;48.886;8.728;2022-10-16T16:26:02;8.47;;;1.93;;
2866;SDS011;1441;48.886;8.728;2022-10-16T16:28:38;11.00;;;1.60;;
2866;SDS011;1441;48.886;8.728;2022-10-16T16:31:04;6.57;;;1.53;;
2866;SDS011;1441;48.886;8.728;2022-10-16T16:33:30;5.70;;;1.67;;
2866;SDS011;1441;48.886;8.728;2022-10-16T16:35:59;5.83;;;1.60;;
2866;SDS011;1441;48.886;8.728;2022-10-16T16:38:26;9.43;;;1.70;;
2866;SDS011;1441;48.886;8.728;2022-10-16T16:40:52;2.53;;;1.40;;
2866;SDS011;1441;48.886;8.728;2022-10-16T16:43:19;3.50;;;1.70;;
2866;SDS011;1441;48.886;8.728;2022-10-16T16:45:47;3.83;;;1.50;;
2866;SDS011;1441;48.886;8.728;2022-10-16T16:48:13;2.80;;;1.50;;
2866;SDS011;1441;48.886;8.728;2022-10-16T16:50:38;1.90;;;1.80;;
2866;SDS011;1441;48.886;8.728;2022-10-16T16:53:04;1.30;;;1.20;;
2866;SDS011;1441;48.886;8.728;2022-10-16T16:55:29;6.50;;;1.40;;
2866;SDS011;1441;48.886;8.728;2022-10-16T16:57:55;2.60;;;1.60;;
2866;SDS011;1441;48.886;8.728;2022-10-16T17:00:21;4.43;;;1.63;;
2866;SDS011;1441;48.886;8.728;2022-10-16T17:02:48;4.50;;;1.53;;
2866;SDS011;1441;48.886;8.728;2022-10-16T17:05:14;10.70;;;2.10;;
2866;SDS011;1441;48.886;8.728;2022-10-16T17:07:41;1.67;;;1.57;;
2866;SDS011;1441;48.886;8.728;2022-10-16T17:10:07;4.07;;;1.80;;
2866;SDS011;1441;48.886;8.728;2022-10-16T17:12:33;1.93;;;1.70;;
2866;SDS011;1441;48.886;8.728;2022-10-16T17:14:59;1.70;;;1.60;;
2866;SDS011;1441;48.886;8.728;2022-10-16T17:17:24;5.53;;;1.93;;
2866;SDS011;1441;48.886;8.728;2022-10-16T17:19:50;4.73;;;2.07;;
2866;SDS011;1441;48.886;8.728;2022-10-16T17:22:16;3.73;;;2.30;;
2866;SDS011;1441;48.886;8.728;2022-10-16T17:24:42;6.40;;;1.90;;
2866;SDS011;1441;48.886;8.728;2022-10-16T17:27:08;2.73;;;1.33;;
2866;SDS011;1441;48.886;8.728;2022-10-16T17:29:34;2.93;;;2.10;;